sensor_id;sensor_type;location;lat;lon;timestamp;P1;durP1;ratioP1;P2;durP2;ratioP2
81894;SDS011;71358;45.642;13.758;2024-01-15T00:00:49;19.95;;;18.05;;
81894;SDS011;71358;45.642;13.758;2024-01-15T00:03:34;19.45;;;17.60;;
81894;SDS011;71358;45.642;13.758;2024-01-15T00:06:19;20.15;;;18.02;;
81894;SDS011;71358;45.642;13.758;2024-01-15T00:09:04;21.25;;;19.08;;
81894;SDS011;71358;45.642;13.758;2024-01-15T00:11:50;21.35;;;19.35;;
81894;SDS011;71358;45.642;13.758;2024-01-15T00:14:34;21.80;;;19.63;;
81894;SDS011;71358;45.642;13.758;2024-01-15T00:17:19;20.38;;;18.42;;
81894;SDS011;71358;45.642;13.758;2024-01-15T00:20:04;21.42;;;19.45;;
81894;SDS011;71358;45.642;13.758;2024-01-15T00:22:49;20.75;;;18.75;;
81894;SDS011;71358;45.642;13.758;2024-01-15T00:25:33;21.55;;;19.52;;
81894;SDS011;71358;45.642;13.758;2024-01-15T00:28:18;20.45;;;18.60;;
81894;SDS011;71358;45.642;13.758;2024-01-15T00:31:02;20.85;;;18.67;;
81894;SDS011;71358;45.642;13.758;2024-01-15T00:33:48;22.13;;;20.13;;
81894;SDS011;71358;45.642;13.758;2024-01-15T00:36:32;22.20;;;19.98;;
81894;SDS011;71358;45.642;13.758;2024-01-15T00:39:17;21.67;;;19.55;;
81894;SDS011;71358;45.642;13.758;2024-01-15T00:42:02;20.63;;;18.67;;
81894;SDS011;71358;45.642;13.758;2024-01-15T00:44:46;21.63;;;19.52;;
81894;SDS011;71358;45.642;13.758;2024-01-15T00:47:31;20.83;;;18.80;;
81894;SDS011;71358;45.642;13.758;2024-01-15T00:50:15;22.05;;;20.00;;
81894;SDS011;71358;45.642;13.758;2024-01-15T00:53:01;21.65;;;19.52;;
81894;SDS011;71358;45.642;13.758;2024-01-15T00:55:45;22.13;;;19.98;;
81894;SDS011;71358;45.642;13.758;2024-01-15T00:58:30;23.02;;;20.70;;
81894;SDS011;71358;45.642;13.758;2024-01-15T01:01:14;22.50;;;20.30;;
81894;SDS011;71358;45.642;13.758;2024-01-15T01:03:59;22.33;;;20.33;;
81894;SDS011;71358;45.642;13.758;2024-01-15T01:06:43;23.00;;;20.75;;
81894;SDS011;71358;45.642;13.758;2024-01-15T01:09:28;23.20;;;21.08;;
81894;SDS011;71358;45.642;13.758;2024-01-15T01:12:13;22.63;;;20.50;;
81894;SDS011;71358;45.642;13.758;2024-01-15T01:14:58;23.70;;;21.30;;
81894;SDS011;71358;45.642;13.758;2024-01-15T01:17:42;23.27;;;21.08;;
81894;SDS011;71358;45.642;13.758;2024-01-15T01:20:27;23.95;;;21.65;;
81894;SDS011;71358;45.642;13.758;2024-01-15T01:23:11;23.50;;;21.30;;
81894;SDS011;71358;45.642;13.758;2024-01-15T01:25:56;21.98;;;19.90;;
81894;SDS011;71358;45.642;13.758;2024-01-15T01:28:41;22.98;;;20.65;;
81894;SDS011;71358;45.642;13.758;2024-01-15T01:31:25;23.45;;;21.25;;
81894;SDS011;71358;45.642;13.758;2024-01-15T01:34:10;22.38;;;20.02;;
81894;SDS011;71358;45.642;13.758;2024-01-15T01:36:57;22.67;;;20.38;;
81894;SDS011;71358;45.642;13.758;2024-01-15T01:39:44;23.10;;;21.05;;
81894;SDS011;71358;45.642;13.758;2024-01-15T01:42:28;23.80;;;21.40;;
81894;SDS011;71358;45.642;13.758;2024-01-15T01:45:13;23.73;;;21.33;;
81894;SDS011;71358;45.642;13.758;2024-01-15T01:47:57;22.17;;;20.17;;
81894;SDS011;71358;45.642;13.758;2024-01-15T01:50:42;22.85;;;20.65;;
81894;SDS011;71358;45.642;13.758;2024-01-15T01:53:28;23.85;;;21.58;;
81894;SDS011;71358;45.642;13.758;2024-01-15T01:56:15;24.30;;;21.90;;
81894;SDS011;71358;45.642;13.758;2024-01-15T01:59:00;23.20;;;21.05;;
81894;SDS011;71358;45.642;13.758;2024-01-15T02:01:46;22.63;;;20.60;;
81894;SDS011;71358;45.642;13.758;2024-01-15T02:04:33;23.40;;;21.20;;
81894;SDS011;71358;45.642;13.758;2024-01-15T02:07:19;23.50;;;21.30;;
81894;SDS011;71358;45.642;13.758;2024-01-15T02:10:05;21.98;;;19.88;;
81894;SDS011;71358;45.642;13.758;2024-01-15T02:12:50;22.80;;;20.63;;
81894;SDS011;71358;45.642;13.758;2024-01-15T02:15:34;23.38;;;21.13;;
81894;SDS011;71358;45.642;13.758;2024-01-15T02:18:19;23.15;;;20.95;;
81894;SDS011;71358;45.642;13.758;2024-01-15T02:21:03;23.85;;;21.65;;
81894;SDS011;71358;45.642;13.758;2024-01-15T02:23:48;24.73;;;22.33;;
81894;SDS011;71358;45.642;13.758;2024-01-15T02:26:33;23.30;;;21.15;;
81894;SDS011;71358;45.642;13.758;2024-01-15T02:29:19;25.02;;;22.30;;
81894;SDS011;71358;45.642;13.758;2024-01-15T02:32:04;24.02;;;21.73;;
81894;SDS011;71358;45.642;13.758;2024-01-15T02:34:49;24.02;;;21.83;;
81894;SDS011;71358;45.642;13.758;2024-01-15T02:37:34;24.40;;;22.08;;
81894;SDS011;71358;45.642;13.758;2024-01-15T02:40:19;23.52;;;21.27;;
81894;SDS011;71358;45.642;13.758;2024-01-15T02:43:04;24.23;;;21.65;;
81894;SDS011;71358;45.642;13.758;2024-01-15T02:45:48;23.45;;;21.15;;
81894;SDS011;71358;45.642;13.758;2024-01-15T02:48:33;24.30;;;22.10;;
81894;SDS011;71358;45.642;13.758;2024-01-15T02:51:18;23.92;;;21.73;;
81894;SDS011;71358;45.642;13.758;2024-01-15T02:54:03;23.98;;;21.67;;
81894;SDS011;71358;45.642;13.758;2024-01-15T02:56:47;22.70;;;20.60;;
81894;SDS011;71358;45.642;13.758;2024-01-15T02:59:32;23.58;;;21.17;;
81894;SDS011;71358;45.642;13.758;2024-01-15T03:02:16;23.17;;;21.08;;
81894;SDS011;71358;45.642;13.758;2024-01-15T03:05:01;23.73;;;21.38;;
81894;SDS011;71358;45.642;13.758;2024-01-15T03:07:46;24.25;;;21.88;;
81894;SDS011;71358;45.642;13.758;2024-01-15T03:10:30;23.10;;;20.92;;
81894;SDS011;71358;45.642;13.758;2024-01-15T03:13:15;23.35;;;21.10;;
81894;SDS011;71358;45.642;13.758;2024-01-15T03:15:59;21.98;;;19.88;;
81894;SDS011;71358;45.642;13.758;2024-01-15T03:18:44;24.63;;;21.65;;
81894;SDS011;71358;45.642;13.758;2024-01-15T03:21:28;23.13;;;21.00;;
81894;SDS011;71358;45.642;13.758;2024-01-15T03:24:13;22.35;;;20.23;;
81894;SDS011;71358;45.642;13.758;2024-01-15T03:26:58;23.45;;;21.13;;
81894;SDS011;71358;45.642;13.758;2024-01-15T03:29:42;22.65;;;20.42;;
81894;SDS011;71358;45.642;13.758;2024-01-15T03:32:27;23.90;;;21.48;;
81894;SDS011;71358;45.642;13.758;2024-01-15T03:35:11;23.27;;;21.08;;
81894;SDS011;71358;45.642;13.758;2024-01-15T03:37:56;23.80;;;21.50;;
81894;SDS011;71358;45.642;13.758;2024-01-15T03:40:40;23.10;;;20.70;;
81894;SDS011;71358;45.642;13.758;2024-01-15T03:43:25;23.33;;;21.17;;
81894;SDS011;71358;45.642;13.758;2024-01-15T03:46:11;22.90;;;20.55;;
81894;SDS011;71358;45.642;13.758;2024-01-15T03:48:56;23.58;;;21.27;;
81894;SDS011;71358;45.642;13.758;2024-01-15T03:51:41;21.63;;;19.52;;
81894;SDS011;71358;45.642;13.758;2024-01-15T03:54:25;23.75;;;21.52;;
81894;SDS011;71358;45.642;13.758;2024-01-15T03:57:10;21.88;;;19.77;;
81894;SDS011;71358;45.642;13.758;2024-01-15T03:59:55;23.02;;;20.65;;
81894;SDS011;71358;45.642;13.758;2024-01-15T04:02:39;21.38;;;19.48;;
81894;SDS011;71358;45.642;13.758;2024-01-15T04:05:24;21.88;;;19.90;;
81894;SDS011;71358;45.642;13.758;2024-01-15T04:08:08;22.25;;;20.15;;
81894;SDS011;71358;45.642;13.758;2024-01-15T04:10:53;21.10;;;19.02;;
81894;SDS011;71358;45.642;13.758;2024-01-15T04:13:38;21.73;;;19.52;;
81894;SDS011;71358;45.642;13.758;2024-01-15T04:16:23;22.05;;;19.92;;
81894;SDS011;71358;45.642;13.758;2024-01-15T04:19:08;22.40;;;20.25;;
81894;SDS011;71358;45.642;13.758;2024-01-15T04:21:52;22.27;;;20.10;;
81894;SDS011;71358;45.642;13.758;2024-01-15T04:24:37;23.17;;;20.95;;
81894;SDS011;71358;45.642;13.758;2024-01-15T04:27:21;21.65;;;19.65;;
81894;SDS011;71358;45.642;13.758;2024-01-15T04:30:06;21.00;;;19.00;;
81894;SDS011;71358;45.642;13.758;2024-01-15T04:32:51;21.98;;;19.98;;
81894;SDS011;71358;45.642;13.758;2024-01-15T04:35:36;21.90;;;19.80;;
81894;SDS011;71358;45.642;13.758;2024-01-15T04:38:22;21.25;;;19.25;;
81894;SDS011;71358;45.642;13.758;2024-01-15T04:41:09;21.63;;;19.50;;
81894;SDS011;71358;45.642;13.758;2024-01-15T04:43:55;22.65;;;20.60;;
81894;SDS011;71358;45.642;13.758;2024-01-15T04:46:39;21.98;;;19.98;;
81894;SDS011;71358;45.642;13.758;2024-01-15T04:49:24;24.25;;;21.85;;
81894;SDS011;71358;45.642;13.758;2024-01-15T04:52:10;24.13;;;21.85;;
81894;SDS011;71358;45.642;13.758;2024-01-15T04:54:56;23.90;;;21.50;;
81894;SDS011;71358;45.642;13.758;2024-01-15T04:57:41;22.77;;;20.75;;
81894;SDS011;71358;45.642;13.758;2024-01-15T05:00:25;23.13;;;20.85;;
81894;SDS011;71358;45.642;13.758;2024-01-15T05:03:10;23.58;;;21.27;;
81894;SDS011;71358;45.642;13.758;2024-01-15T05:05:54;24.70;;;22.30;;
81894;SDS011;71358;45.642;13.758;2024-01-15T05:08:39;23.92;;;21.65;;
81894;SDS011;71358;45.642;13.758;2024-01-15T05:11:24;24.42;;;22.02;;
81894;SDS011;71358;45.642;13.758;2024-01-15T05:14:08;22.35;;;20.05;;
81894;SDS011;71358;45.642;13.758;2024-01-15T05:16:53;22.85;;;20.73;;
81894;SDS011;71358;45.642;13.758;2024-01-15T05:19:37;22.67;;;20.35;;
81894;SDS011;71358;45.642;13.758;2024-01-15T05:22:22;22.60;;;20.40;;
81894;SDS011;71358;45.642;13.758;2024-01-15T05:25:08;24.45;;;21.98;;
81894;SDS011;71358;45.642;13.758;2024-01-15T05:27:53;23.02;;;20.83;;
81894;SDS011;71358;45.642;13.758;2024-01-15T05:30:37;22.27;;;20.23;;
81894;SDS011;71358;45.642;13.758;2024-01-15T05:33:22;22.85;;;20.73;;
81894;SDS011;71358;45.642;13.758;2024-01-15T05:36:07;22.55;;;20.42;;
81894;SDS011;71358;45.642;13.758;2024-01-15T05:38:52;22.60;;;20.48;;
81894;SDS011;71358;45.642;13.758;2024-01-15T05:41:36;21.60;;;19.60;;
81894;SDS011;71358;45.642;13.758;2024-01-15T05:44:21;23.15;;;20.95;;
81894;SDS011;71358;45.642;13.758;2024-01-15T05:47:05;23.25;;;20.98;;
81894;SDS011;71358;45.642;13.758;2024-01-15T05:49:50;23.02;;;20.88;;
81894;SDS011;71358;45.642;13.758;2024-01-15T05:52:35;21.52;;;19.42;;
81894;SDS011;71358;45.642;13.758;2024-01-15T05:55:19;22.85;;;20.73;;
81894;SDS011;71358;45.642;13.758;2024-01-15T05:58:04;22.80;;;20.60;;
81894;SDS011;71358;45.642;13.758;2024-01-15T06:00:49;23.50;;;21.08;;
81894;SDS011;71358;45.642;13.758;2024-01-15T06:03:33;22.58;;;20.38;;
81894;SDS011;71358;45.642;13.758;2024-01-15T06:06:18;22.50;;;20.25;;
81894;SDS011;71358;45.642;13.758;2024-01-15T06:09:03;20.75;;;18.85;;
81894;SDS011;71358;45.642;13.758;2024-01-15T06:11:49;23.23;;;20.92;;
81894;SDS011;71358;45.642;13.758;2024-01-15T06:14:33;23.52;;;21.42;;
81894;SDS011;71358;45.642;13.758;2024-01-15T06:17:18;22.85;;;20.67;;
81894;SDS011;71358;45.642;13.758;2024-01-15T06:20:03;21.52;;;19.48;;
81894;SDS011;71358;45.642;13.758;2024-01-15T06:22:48;22.23;;;20.13;;
81894;SDS011;71358;45.642;13.758;2024-01-15T06:25:32;21.70;;;19.63;;
81894;SDS011;71358;45.642;13.758;2024-01-15T06:28:17;20.77;;;18.88;;
81894;SDS011;71358;45.642;13.758;2024-01-15T06:31:01;20.60;;;18.73;;
81894;SDS011;71358;45.642;13.758;2024-01-15T06:33:46;22.35;;;20.00;;
81894;SDS011;71358;45.642;13.758;2024-01-15T06:36:31;22.00;;;20.00;;
81894;SDS011;71358;45.642;13.758;2024-01-15T06:39:16;20.52;;;18.58;;
81894;SDS011;71358;45.642;13.758;2024-01-15T06:42:00;21.40;;;19.40;;
81894;SDS011;71358;45.642;13.758;2024-01-15T06:44:45;19.95;;;18.15;;
81894;SDS011;71358;45.642;13.758;2024-01-15T06:47:30;19.15;;;17.30;;
81894;SDS011;71358;45.642;13.758;2024-01-15T06:50:16;20.80;;;18.73;;
81894;SDS011;71358;45.642;13.758;2024-01-15T06:53:00;20.90;;;18.73;;
81894;SDS011;71358;45.642;13.758;2024-01-15T06:55:45;20.80;;;18.80;;
81894;SDS011;71358;45.642;13.758;2024-01-15T06:58:33;19.10;;;17.40;;
81894;SDS011;71358;45.642;13.758;2024-01-15T07:01:17;20.85;;;18.85;;
81894;SDS011;71358;45.642;13.758;2024-01-15T07:04:02;20.02;;;18.10;;
81894;SDS011;71358;45.642;13.758;2024-01-15T07:06:47;18.50;;;16.67;;
81894;SDS011;71358;45.642;13.758;2024-01-15T07:09:31;19.92;;;18.20;;
81894;SDS011;71358;45.642;13.758;2024-01-15T07:12:16;18.60;;;17.00;;
81894;SDS011;71358;45.642;13.758;2024-01-15T07:15:01;20.10;;;18.30;;
81894;SDS011;71358;45.642;13.758;2024-01-15T07:17:46;18.50;;;16.70;;
81894;SDS011;71358;45.642;13.758;2024-01-15T07:20:30;20.80;;;18.80;;
81894;SDS011;71358;45.642;13.758;2024-01-15T07:23:15;19.27;;;17.40;;
81894;SDS011;71358;45.642;13.758;2024-01-15T07:25:59;19.40;;;17.60;;
81894;SDS011;71358;45.642;13.758;2024-01-15T07:28:44;19.65;;;17.58;;
81894;SDS011;71358;45.642;13.758;2024-01-15T07:31:28;18.88;;;17.10;;
81894;SDS011;71358;45.642;13.758;2024-01-15T07:34:13;18.95;;;17.17;;
81894;SDS011;71358;45.642;13.758;2024-01-15T07:36:58;18.55;;;16.85;;
81894;SDS011;71358;45.642;13.758;2024-01-15T07:39:42;19.02;;;17.20;;
81894;SDS011;71358;45.642;13.758;2024-01-15T07:42:27;18.90;;;16.98;;
81894;SDS011;71358;45.642;13.758;2024-01-15T07:45:11;18.33;;;16.48;;
81894;SDS011;71358;45.642;13.758;2024-01-15T07:47:56;18.98;;;17.08;;
81894;SDS011;71358;45.642;13.758;2024-01-15T07:50:40;17.48;;;15.73;;
81894;SDS011;71358;45.642;13.758;2024-01-15T07:53:25;17.42;;;15.82;;
81894;SDS011;71358;45.642;13.758;2024-01-15T07:56:09;18.38;;;16.58;;
81894;SDS011;71358;45.642;13.758;2024-01-15T07:58:54;18.00;;;16.40;;
81894;SDS011;71358;45.642;13.758;2024-01-15T08:01:40;17.63;;;15.93;;
81894;SDS011;71358;45.642;13.758;2024-01-15T08:04:24;17.00;;;15.35;;
81894;SDS011;71358;45.642;13.758;2024-01-15T08:07:09;17.42;;;15.85;;
81894;SDS011;71358;45.642;13.758;2024-01-15T08:09:53;18.73;;;17.02;;
81894;SDS011;71358;45.642;13.758;2024-01-15T08:12:38;17.55;;;15.88;;
81894;SDS011;71358;45.642;13.758;2024-01-15T08:15:22;16.15;;;14.65;;
81894;SDS011;71358;45.642;13.758;2024-01-15T08:18:07;17.20;;;15.57;;
81894;SDS011;71358;45.642;13.758;2024-01-15T08:20:52;17.13;;;15.52;;
81894;SDS011;71358;45.642;13.758;2024-01-15T08:23:36;17.52;;;15.93;;
81894;SDS011;71358;45.642;13.758;2024-01-15T08:26:21;17.50;;;15.90;;
81894;SDS011;71358;45.642;13.758;2024-01-15T08:29:05;17.45;;;15.75;;
81894;SDS011;71358;45.642;13.758;2024-01-15T08:31:50;17.73;;;15.93;;
81894;SDS011;71358;45.642;13.758;2024-01-15T08:34:34;17.67;;;15.98;;
81894;SDS011;71358;45.642;13.758;2024-01-15T08:37:19;16.35;;;14.95;;
81894;SDS011;71358;45.642;13.758;2024-01-15T08:40:04;17.92;;;16.23;;
81894;SDS011;71358;45.642;13.758;2024-01-15T08:42:48;18.73;;;16.75;;
81894;SDS011;71358;45.642;13.758;2024-01-15T08:45:33;17.33;;;15.77;;
81894;SDS011;71358;45.642;13.758;2024-01-15T08:48:17;18.77;;;15.68;;
81894;SDS011;71358;45.642;13.758;2024-01-15T08:51:02;19.60;;;17.25;;
81894;SDS011;71358;45.642;13.758;2024-01-15T08:53:46;18.63;;;16.35;;
81894;SDS011;71358;45.642;13.758;2024-01-15T08:56:31;23.35;;;19.40;;
81894;SDS011;71358;45.642;13.758;2024-01-15T08:59:16;21.05;;;18.67;;
81894;SDS011;71358;45.642;13.758;2024-01-15T09:02:00;20.30;;;17.45;;
81894;SDS011;71358;45.642;13.758;2024-01-15T09:04:45;18.10;;;16.20;;
81894;SDS011;71358;45.642;13.758;2024-01-15T09:07:29;21.25;;;19.17;;
81894;SDS011;71358;45.642;13.758;2024-01-15T09:10:14;28.02;;;17.77;;
81894;SDS011;71358;45.642;13.758;2024-01-15T09:12:59;18.60;;;16.67;;
81894;SDS011;71358;45.642;13.758;2024-01-15T09:15:44;17.92;;;16.02;;
81894;SDS011;71358;45.642;13.758;2024-01-15T09:18:28;18.00;;;16.27;;
81894;SDS011;71358;45.642;13.758;2024-01-15T09:21:13;18.50;;;16.75;;
81894;SDS011;71358;45.642;13.758;2024-01-15T09:23:58;19.45;;;17.65;;
81894;SDS011;71358;45.642;13.758;2024-01-15T09:26:42;17.10;;;15.30;;
81894;SDS011;71358;45.642;13.758;2024-01-15T09:29:27;24.10;;;17.05;;
81894;SDS011;71358;45.642;13.758;2024-01-15T09:32:12;21.17;;;16.58;;
81894;SDS011;71358;45.642;13.758;2024-01-15T09:34:56;21.50;;;17.80;;
81894;SDS011;71358;45.642;13.758;2024-01-15T09:37:40;19.42;;;17.50;;
81894;SDS011;71358;45.642;13.758;2024-01-15T09:40:27;20.27;;;17.70;;
81894;SDS011;71358;45.642;13.758;2024-01-15T09:43:15;21.40;;;17.85;;
81894;SDS011;71358;45.642;13.758;2024-01-15T09:46:01;23.55;;;16.88;;
81894;SDS011;71358;45.642;13.758;2024-01-15T09:48:45;18.40;;;16.45;;
81894;SDS011;71358;45.642;13.758;2024-01-15T09:51:31;21.95;;;19.70;;
81894;SDS011;71358;45.642;13.758;2024-01-15T09:54:15;20.60;;;18.50;;
81894;SDS011;71358;45.642;13.758;2024-01-15T09:57:01;19.58;;;17.33;;
81894;SDS011;71358;45.642;13.758;2024-01-15T09:59:46;20.10;;;17.88;;
81894;SDS011;71358;45.642;13.758;2024-01-15T10:02:32;18.50;;;16.35;;
81894;SDS011;71358;45.642;13.758;2024-01-15T10:05:17;21.10;;;18.00;;
81894;SDS011;71358;45.642;13.758;2024-01-15T10:08:02;19.17;;;16.63;;
81894;SDS011;71358;45.642;13.758;2024-01-15T10:10:48;17.92;;;16.10;;
81894;SDS011;71358;45.642;13.758;2024-01-15T10:13:33;20.67;;;17.63;;
81894;SDS011;71358;45.642;13.758;2024-01-15T10:16:17;19.80;;;16.77;;
81894;SDS011;71358;45.642;13.758;2024-01-15T10:19:02;17.58;;;15.65;;
81894;SDS011;71358;45.642;13.758;2024-01-15T10:21:47;22.77;;;16.95;;
81894;SDS011;71358;45.642;13.758;2024-01-15T10:24:32;19.58;;;17.42;;
81894;SDS011;71358;45.642;13.758;2024-01-15T10:27:18;21.67;;;17.30;;
81894;SDS011;71358;45.642;13.758;2024-01-15T10:30:03;19.58;;;15.95;;
81894;SDS011;71358;45.642;13.758;2024-01-15T10:32:56;17.52;;;15.63;;
81894;SDS011;71358;45.642;13.758;2024-01-15T10:35:45;20.73;;;16.83;;
81894;SDS011;71358;45.642;13.758;2024-01-15T10:38:30;17.05;;;15.35;;
81894;SDS011;71358;45.642;13.758;2024-01-15T10:41:14;17.30;;;15.60;;
81894;SDS011;71358;45.642;13.758;2024-01-15T10:44:00;17.42;;;15.63;;
81894;SDS011;71358;45.642;13.758;2024-01-15T10:46:44;17.55;;;15.90;;
81894;SDS011;71358;45.642;13.758;2024-01-15T10:49:29;16.35;;;14.65;;
81894;SDS011;71358;45.642;13.758;2024-01-15T10:52:14;16.63;;;14.60;;
81894;SDS011;71358;45.642;13.758;2024-01-15T10:54:59;17.00;;;15.30;;
81894;SDS011;71358;45.642;13.758;2024-01-15T10:57:44;21.30;;;15.93;;
81894;SDS011;71358;45.642;13.758;2024-01-15T11:00:31;16.30;;;14.70;;
81894;SDS011;71358;45.642;13.758;2024-01-15T11:03:16;16.27;;;14.68;;
81894;SDS011;71358;45.642;13.758;2024-01-15T11:06:02;16.75;;;14.57;;
81894;SDS011;71358;45.642;13.758;2024-01-15T11:08:50;17.15;;;15.35;;
81894;SDS011;71358;45.642;13.758;2024-01-15T11:11:39;16.67;;;15.07;;
81894;SDS011;71358;45.642;13.758;2024-01-15T11:17:19;17.00;;;15.30;;
81894;SDS011;71358;45.642;13.758;2024-01-15T11:20:05;15.45;;;13.77;;
81894;SDS011;71358;45.642;13.758;2024-01-15T11:22:50;16.50;;;14.82;;
81894;SDS011;71358;45.642;13.758;2024-01-15T11:25:35;16.85;;;15.15;;
81894;SDS011;71358;45.642;13.758;2024-01-15T11:40:38;16.67;;;14.93;;
81894;SDS011;71358;45.642;13.758;2024-01-15T11:43:23;17.02;;;15.23;;
81894;SDS011;71358;45.642;13.758;2024-01-15T11:46:11;16.08;;;14.32;;
81894;SDS011;71358;45.642;13.758;2024-01-15T11:48:57;14.70;;;12.93;;
81894;SDS011;71358;45.642;13.758;2024-01-15T11:51:48;15.75;;;13.63;;
81894;SDS011;71358;45.642;13.758;2024-01-15T11:54:33;14.70;;;13.30;;
81894;SDS011;71358;45.642;13.758;2024-01-15T11:57:25;13.20;;;11.95;;
81894;SDS011;71358;45.642;13.758;2024-01-15T12:00:17;14.60;;;13.10;;
81894;SDS011;71358;45.642;13.758;2024-01-15T12:03:02;13.38;;;12.02;;
81894;SDS011;71358;45.642;13.758;2024-01-15T12:05:49;12.57;;;11.35;;
81894;SDS011;71358;45.642;13.758;2024-01-15T12:08:35;13.73;;;12.32;;
81894;SDS011;71358;45.642;13.758;2024-01-15T12:11:20;13.23;;;11.93;;
81894;SDS011;71358;45.642;13.758;2024-01-15T12:14:08;11.88;;;10.80;;
81894;SDS011;71358;45.642;13.758;2024-01-15T12:16:52;13.38;;;12.18;;
81894;SDS011;71358;45.642;13.758;2024-01-15T12:19:37;13.15;;;11.63;;
81894;SDS011;71358;45.642;13.758;2024-01-15T12:22:21;12.45;;;11.10;;
81894;SDS011;71358;45.642;13.758;2024-01-15T12:25:06;12.23;;;11.02;;
81894;SDS011;71358;45.642;13.758;2024-01-15T12:27:51;13.43;;;12.05;;
81894;SDS011;71358;45.642;13.758;2024-01-15T12:30:35;11.93;;;10.75;;
81894;SDS011;71358;45.642;13.758;2024-01-15T12:33:21;12.45;;;11.18;;
81894;SDS011;71358;45.642;13.758;2024-01-15T12:36:06;13.15;;;11.77;;
81894;SDS011;71358;45.642;13.758;2024-01-15T12:38:51;15.70;;;14.20;;
81894;SDS011;71358;45.642;13.758;2024-01-15T12:41:36;17.65;;;15.70;;
81894;SDS011;71358;45.642;13.758;2024-01-15T12:44:20;17.48;;;15.88;;
81894;SDS011;71358;45.642;13.758;2024-01-15T12:47:05;16.58;;;14.98;;
81894;SDS011;71358;45.642;13.758;2024-01-15T12:49:51;15.90;;;14.43;;
81894;SDS011;71358;45.642;13.758;2024-01-15T12:52:42;15.18;;;13.68;;
81894;SDS011;71358;45.642;13.758;2024-01-15T12:55:26;15.52;;;14.02;;
81894;SDS011;71358;45.642;13.758;2024-01-15T12:58:11;14.25;;;12.95;;
81894;SDS011;71358;45.642;13.758;2024-01-15T13:00:55;13.23;;;11.98;;
81894;SDS011;71358;45.642;13.758;2024-01-15T13:03:40;16.33;;;12.30;;
81894;SDS011;71358;45.642;13.758;2024-01-15T13:06:24;13.70;;;12.30;;
81894;SDS011;71358;45.642;13.758;2024-01-15T13:09:08;14.10;;;12.65;;
81894;SDS011;71358;45.642;13.758;2024-01-15T13:11:53;13.93;;;12.63;;
81894;SDS011;71358;45.642;13.758;2024-01-15T13:14:38;14.43;;;12.25;;
81894;SDS011;71358;45.642;13.758;2024-01-15T13:17:24;14.15;;;11.43;;
81894;SDS011;71358;45.642;13.758;2024-01-15T13:20:09;12.18;;;10.98;;
81894;SDS011;71358;45.642;13.758;2024-01-15T13:22:54;12.77;;;11.45;;
81894;SDS011;71358;45.642;13.758;2024-01-15T13:25:39;13.23;;;11.93;;
81894;SDS011;71358;45.642;13.758;2024-01-15T13:28:24;13.55;;;11.55;;
81894;SDS011;71358;45.642;13.758;2024-01-15T13:31:08;12.90;;;11.57;;
81894;SDS011;71358;45.642;13.758;2024-01-15T13:33:53;14.80;;;10.50;;
81894;SDS011;71358;45.642;13.758;2024-01-15T13:36:39;12.38;;;11.15;;
81894;SDS011;71358;45.642;13.758;2024-01-15T13:39:24;11.85;;;10.65;;
81894;SDS011;71358;45.642;13.758;2024-01-15T13:42:09;11.23;;;10.13;;
81894;SDS011;71358;45.642;13.758;2024-01-15T13:44:55;11.30;;;10.20;;
81894;SDS011;71358;45.642;13.758;2024-01-15T13:47:40;10.60;;;9.50;;
81894;SDS011;71358;45.642;13.758;2024-01-15T13:50:26;10.93;;;9.68;;
81894;SDS011;71358;45.642;13.758;2024-01-15T13:53:11;11.82;;;10.50;;
81894;SDS011;71358;45.642;13.758;2024-01-15T13:55:55;17.15;;;14.65;;
81894;SDS011;71358;45.642;13.758;2024-01-15T13:58:40;25.73;;;23.15;;
81894;SDS011;71358;45.642;13.758;2024-01-15T14:01:25;32.85;;;29.63;;
81894;SDS011;71358;45.642;13.758;2024-01-15T14:04:10;30.45;;;27.58;;
81894;SDS011;71358;45.642;13.758;2024-01-15T14:06:54;31.10;;;28.08;;
81894;SDS011;71358;45.642;13.758;2024-01-15T14:09:40;33.63;;;30.15;;
81894;SDS011;71358;45.642;13.758;2024-01-15T14:12:24;31.20;;;28.13;;
81894;SDS011;71358;45.642;13.758;2024-01-15T14:15:10;28.50;;;25.90;;
81894;SDS011;71358;45.642;13.758;2024-01-15T14:17:54;29.90;;;26.77;;
81894;SDS011;71358;45.642;13.758;2024-01-15T14:20:39;28.38;;;25.50;;
81894;SDS011;71358;45.642;13.758;2024-01-15T14:23:23;27.52;;;24.60;;
81894;SDS011;71358;45.642;13.758;2024-01-15T14:26:08;25.85;;;23.45;;
81894;SDS011;71358;45.642;13.758;2024-01-15T14:28:53;26.42;;;23.88;;
81894;SDS011;71358;45.642;13.758;2024-01-15T14:31:37;23.00;;;20.80;;
81894;SDS011;71358;45.642;13.758;2024-01-15T14:34:22;23.85;;;21.50;;
81894;SDS011;71358;45.642;13.758;2024-01-15T14:37:07;24.10;;;20.02;;
81894;SDS011;71358;45.642;13.758;2024-01-15T14:39:51;23.15;;;20.88;;
81894;SDS011;71358;45.642;13.758;2024-01-15T14:42:36;21.50;;;19.17;;
81894;SDS011;71358;45.642;13.758;2024-01-15T14:45:21;21.10;;;19.00;;
81894;SDS011;71358;45.642;13.758;2024-01-15T14:48:05;20.63;;;18.55;;
81894;SDS011;71358;45.642;13.758;2024-01-15T14:50:50;20.75;;;18.63;;
81894;SDS011;71358;45.642;13.758;2024-01-15T14:53:35;21.55;;;18.05;;
81894;SDS011;71358;45.642;13.758;2024-01-15T14:56:20;21.13;;;18.88;;
81894;SDS011;71358;45.642;13.758;2024-01-15T14:59:04;19.08;;;17.20;;
81894;SDS011;71358;45.642;13.758;2024-01-15T15:01:49;18.00;;;16.30;;
81894;SDS011;71358;45.642;13.758;2024-01-15T15:04:33;17.58;;;16.02;;
81894;SDS011;71358;45.642;13.758;2024-01-15T15:07:18;16.95;;;15.35;;
81894;SDS011;71358;45.642;13.758;2024-01-15T15:10:03;17.25;;;15.65;;
81894;SDS011;71358;45.642;13.758;2024-01-15T15:12:50;16.65;;;15.07;;
81894;SDS011;71358;45.642;13.758;2024-01-15T15:15:35;17.45;;;15.80;;
81894;SDS011;71358;45.642;13.758;2024-01-15T15:18:19;16.85;;;15.25;;
81894;SDS011;71358;45.642;13.758;2024-01-15T15:21:05;15.85;;;14.43;;
81894;SDS011;71358;45.642;13.758;2024-01-15T15:23:50;16.73;;;14.85;;
81894;SDS011;71358;45.642;13.758;2024-01-15T15:26:35;14.68;;;13.23;;
81894;SDS011;71358;45.642;13.758;2024-01-15T15:29:20;14.07;;;12.77;;
81894;SDS011;71358;45.642;13.758;2024-01-15T15:32:06;14.77;;;13.43;;
81894;SDS011;71358;45.642;13.758;2024-01-15T15:34:50;15.10;;;13.65;;
81894;SDS011;71358;45.642;13.758;2024-01-15T15:37:35;13.48;;;12.20;;
81894;SDS011;71358;45.642;13.758;2024-01-15T15:40:20;13.85;;;12.52;;
81894;SDS011;71358;45.642;13.758;2024-01-15T15:43:04;13.93;;;12.65;;
81894;SDS011;71358;45.642;13.758;2024-01-15T15:45:49;12.75;;;11.55;;
81894;SDS011;71358;45.642;13.758;2024-01-15T15:48:34;12.93;;;11.68;;
81894;SDS011;71358;45.642;13.758;2024-01-15T15:51:18;12.95;;;11.52;;
81894;SDS011;71358;45.642;13.758;2024-01-15T15:54:03;12.73;;;11.48;;
81894;SDS011;71358;45.642;13.758;2024-01-15T15:56:49;13.00;;;11.80;;
81894;SDS011;71358;45.642;13.758;2024-01-15T15:59:34;12.57;;;11.30;;
81894;SDS011;71358;45.642;13.758;2024-01-15T16:02:19;12.60;;;11.40;;
81894;SDS011;71358;45.642;13.758;2024-01-15T16:05:04;15.13;;;12.02;;